createdAt,value
2022-10-16T00:00:09.737Z,14.64
2022-10-16T00:01:09.980Z,14.69
2022-10-16T00:02:10.280Z,14.74
2022-10-16T00:03:10.247Z,14.74
2022-10-16T00:04:10.255Z,14.79
2022-10-16T00:05:09.944Z,14.77
2022-10-16T00:06:09.940Z,14.83
2022-10-16T00:07:10.224Z,14.89
2022-10-16T00:08:09.950Z,14.75
2022-10-16T00:09:09.986Z,14.71
2022-10-16T00:10:10.196Z,14.75
2022-10-16T00:11:09.660Z,14.7
2022-10-16T00:12:09.693Z,14.66
2022-10-16T00:13:09.967Z,14.61
2022-10-16T00:14:10.162Z,14.66
2022-10-16T00:15:09.855Z,14.61
2022-10-16T00:16:09.858Z,14.59
2022-10-16T00:17:10.109Z,14.51
2022-10-16T00:18:09.857Z,14.57
2022-10-16T00:19:09.828Z,14.53
2022-10-16T00:20:10.171Z,14.52
2022-10-16T00:21:09.818Z,14.61
2022-10-16T00:22:09.542Z,14.49
2022-10-16T00:23:09.789Z,14.56
2022-10-16T00:24:09.789Z,14.56
2022-10-16T00:25:09.772Z,14.63
2022-10-16T00:26:10.016Z,14.6
2022-10-16T00:27:10.014Z,14.63
2022-10-16T00:28:10.010Z,14.63
2022-10-16T00:29:09.873Z,14.7
2022-10-16T00:30:09.532Z,14.59
2022-10-16T00:31:09.727Z,14.61
2022-10-16T00:32:09.717Z,14.69
2022-10-16T00:33:09.445Z,14.7
2022-10-16T00:34:09.986Z,14.75
2022-10-16T00:35:09.957Z,14.75
2022-10-16T00:36:09.993Z,14.75
2022-10-16T00:37:09.670Z,14.67
2022-10-16T00:38:09.666Z,14.75
2022-10-16T00:39:09.410Z,14.7
2022-10-16T00:40:09.906Z,14.71
2022-10-16T00:41:09.636Z,14.69
2022-10-16T00:42:09.382Z,14.77
2022-10-16T00:43:09.632Z,14.7
2022-10-16T00:44:09.623Z,14.7
2022-10-16T00:45:09.601Z,14.74
2022-10-16T00:46:09.863Z,14.71
2022-10-16T00:47:09.846Z,14.77
2022-10-16T00:48:09.312Z,14.74
2022-10-16T00:49:09.842Z,14.67
2022-10-16T00:50:09.852Z,14.77
2022-10-16T00:51:09.558Z,14.75
2022-10-16T00:52:09.858Z,14.71
2022-10-16T00:53:09.824Z,14.71
2022-10-16T00:54:09.277Z,14.8
2022-10-16T00:55:09.778Z,14.77
2022-10-16T00:56:09.781Z,14.74
2022-10-16T00:57:09.549Z,14.77
2022-10-16T00:58:09.756Z,14.71
2022-10-16T00:59:09.510Z,14.63
2022-10-16T01:00:09.742Z,14.7
2022-10-16T01:01:09.983Z,14.56
2022-10-16T01:02:09.471Z,14.46
2022-10-16T01:03:09.202Z,14.53
2022-10-16T01:04:09.703Z,14.51
2022-10-16T01:05:09.695Z,14.46
2022-10-16T01:06:09.706Z,14.52
2022-10-16T01:07:09.688Z,14.51
2022-10-16T01:08:09.729Z,14.49
2022-10-16T01:09:09.146Z,14.49
2022-10-16T01:10:09.664Z,14.53
2022-10-16T01:11:09.426Z,14.48
2022-10-16T01:12:09.378Z,14.51
2022-10-16T01:13:09.396Z,14.57
2022-10-16T01:14:09.360Z,14.45
2022-10-16T01:15:09.105Z,14.53
2022-10-16T01:16:09.608Z,14.48
2022-10-16T01:17:09.594Z,14.53
2022-10-16T01:18:09.332Z,14.48
2022-10-16T01:19:09.317Z,14.49
2022-10-16T01:20:09.179Z,14.51
2022-10-16T01:21:09.058Z,14.63
2022-10-16T01:22:09.572Z,14.56
2022-10-16T01:23:09.029Z,14.57
2022-10-16T01:24:09.604Z,14.56
2022-10-16T01:25:09.541Z,14.53
2022-10-16T01:26:09.002Z,14.48
2022-10-16T01:27:09.503Z,14.56
2022-10-16T01:28:08.995Z,14.56
2022-10-16T01:29:09.343Z,14.48
2022-10-16T01:30:09.235Z,14.53
2022-10-16T01:31:09.218Z,14.53
2022-10-16T01:32:09.209Z,14.57
2022-10-16T01:33:09.213Z,14.63
2022-10-16T01:35:09.193Z,14.66
2022-10-16T01:36:09.432Z,14.64
2022-10-16T01:37:09.423Z,14.66
2022-10-16T01:38:09.184Z,14.69
2022-10-16T01:39:09.414Z,14.79
2022-10-16T01:40:09.439Z,14.69
2022-10-16T01:41:09.133Z,14.7
2022-10-16T01:42:08.871Z,14.71
2022-10-16T01:43:09.128Z,14.75
2022-10-16T01:44:08.858Z,14.83
2022-10-16T01:45:09.104Z,14.8
2022-10-16T01:46:08.834Z,14.71
2022-10-16T01:47:09.357Z,14.74
2022-10-16T01:48:09.079Z,14.79
2022-10-16T01:49:09.329Z,14.71
2022-10-16T01:50:09.058Z,14.77
2022-10-16T01:51:09.305Z,14.69
2022-10-16T01:52:09.054Z,14.8
2022-10-16T01:53:09.036Z,14.75
2022-10-16T01:54:09.303Z,14.79
2022-10-16T01:55:09.274Z,14.82
2022-10-16T01:56:09.316Z,14.82
2022-10-16T01:57:09.006Z,14.71
2022-10-16T01:58:08.991Z,14.75
2022-10-16T01:59:09.239Z,14.79
2022-10-16T02:00:08.974Z,14.71
2022-10-16T02:01:09.601Z,14.6
2022-10-16T02:02:08.961Z,14.66
2022-10-16T02:03:08.690Z,14.69
2022-10-16T02:04:08.938Z,14.7
2022-10-16T02:05:08.934Z,14.7
2022-10-16T02:06:08.919Z,14.63
2022-10-16T02:07:08.655Z,14.69
2022-10-16T02:08:10.628Z,14.7
2022-10-16T02:09:08.911Z,14.6
2022-10-16T02:10:09.180Z,14.63
2022-10-16T02:11:08.637Z,14.61
2022-10-16T02:12:09.183Z,14.6
2022-10-16T02:13:08.619Z,14.49
2022-10-16T02:14:08.607Z,14.53
2022-10-16T02:15:09.112Z,14.61
2022-10-16T02:16:08.841Z,14.56
2022-10-16T02:17:08.840Z,14.48
2022-10-16T02:18:08.830Z,14.56
2022-10-16T02:19:09.070Z,14.53
2022-10-16T02:20:09.192Z,14.46
2022-10-16T02:21:08.946Z,14.6
2022-10-16T02:22:09.067Z,14.49
2022-10-16T02:23:08.779Z,14.52
2022-10-16T02:24:08.562Z,14.46
2022-10-16T02:25:09.027Z,14.45
2022-10-16T02:26:08.784Z,14.49
2022-10-16T02:27:09.004Z,14.57
2022-10-16T02:28:09.043Z,14.48
2022-10-16T02:29:08.738Z,14.45
2022-10-16T02:30:08.991Z,14.51
2022-10-16T02:31:08.713Z,14.39
2022-10-16T02:32:08.712Z,14.44
2022-10-16T02:33:08.792Z,14.39
2022-10-16T02:34:08.435Z,14.42
2022-10-16T02:35:08.681Z,14.33
2022-10-16T02:36:08.691Z,14.31
2022-10-16T02:37:08.922Z,14.28
2022-10-16T02:38:08.595Z,14.31
2022-10-16T02:39:08.642Z,14.33
2022-10-16T02:40:08.908Z,14.27
2022-10-16T02:41:08.379Z,14.3
2022-10-16T02:42:08.911Z,14.31
2022-10-16T02:43:08.353Z,14.31
2022-10-16T02:44:08.955Z,14.27
2022-10-16T02:45:08.602Z,14.24
2022-10-16T02:46:08.337Z,14.2
2022-10-16T02:47:08.568Z,14.26
2022-10-16T02:48:09.256Z,14.24
2022-10-16T02:49:09.257Z,14.27
2022-10-16T02:50:09.250Z,14.27
2022-10-16T02:51:08.981Z,14.27
2022-10-16T02:52:08.977Z,14.28
2022-10-16T02:53:08.959Z,14.26
2022-10-16T02:54:09.218Z,14.27
2022-10-16T02:55:09.204Z,14.38
2022-10-16T02:56:09.075Z,14.31
2022-10-16T02:57:08.686Z,14.33
2022-10-16T02:58:09.202Z,14.28
2022-10-16T02:59:08.663Z,14.36
2022-10-16T03:00:09.202Z,14.36
2022-10-16T03:01:09.230Z,14.48
2022-10-16T03:02:08.884Z,14.39
2022-10-16T03:03:08.875Z,14.3
2022-10-16T03:04:08.867Z,14.42
2022-10-16T03:05:08.652Z,14.39
2022-10-16T03:06:08.845Z,14.39
2022-10-16T03:07:08.848Z,14.48
2022-10-16T03:08:09.120Z,14.46
2022-10-16T03:09:08.873Z,14.51
2022-10-16T03:10:09.316Z,14.49
2022-10-16T03:11:09.300Z,14.42
2022-10-16T03:12:09.299Z,14.49
2022-10-16T03:13:09.282Z,14.51
2022-10-16T03:14:09.043Z,14.51
2022-10-16T03:15:09.280Z,14.49
2022-10-16T03:16:09.318Z,14.46
2022-10-16T03:17:08.738Z,14.67
2022-10-16T03:18:09.243Z,14.53
2022-10-16T03:19:08.729Z,14.61
2022-10-16T03:20:08.995Z,14.56
2022-10-16T03:21:08.963Z,14.64
2022-10-16T03:22:08.955Z,14.49
2022-10-16T03:23:08.686Z,14.53
2022-10-16T03:24:08.938Z,14.52
2022-10-16T03:25:08.692Z,14.48
2022-10-16T03:26:08.923Z,14.53
2022-10-16T03:27:09.170Z,14.52
2022-10-16T03:28:08.895Z,14.48
2022-10-16T03:29:09.377Z,14.42
2022-10-16T03:30:08.928Z,14.42
2022-10-16T03:31:08.903Z,14.45
2022-10-16T03:32:09.173Z,14.33
2022-10-16T03:49:33.063Z,14.11
2022-10-16T03:50:32.719Z,14.11
2022-10-16T03:51:32.955Z,14.11
2022-10-16T03:52:32.697Z,14.06
2022-10-16T03:53:32.687Z,14.08
2022-10-16T03:54:32.658Z,14.08
2022-10-16T03:55:32.663Z,14.11
2022-10-16T03:56:32.897Z,14.19
2022-10-16T03:57:33.541Z,14.12
2022-10-16T03:58:32.622Z,14.06
2022-10-16T03:59:32.867Z,14.13
2022-10-16T04:00:32.614Z,14.09
2022-10-16T04:01:32.658Z,14.21
2022-10-16T04:02:32.328Z,14.2
2022-10-16T04:03:32.319Z,14.23
2022-10-16T04:04:32.558Z,14.3
2022-10-16T04:05:32.885Z,14.27
2022-10-16T04:06:32.800Z,14.27
2022-10-16T04:07:32.922Z,14.27
2022-10-16T04:08:32.527Z,14.19
2022-10-16T04:09:32.256Z,14.31
2022-10-16T04:10:32.257Z,14.24
2022-10-16T04:11:32.240Z,14.26
2022-10-16T04:12:32.736Z,14.31
2022-10-16T04:13:32.480Z,14.31
2022-10-16T04:14:32.722Z,14.28
2022-10-16T04:15:32.453Z,14.28
2022-10-16T04:16:32.710Z,14.38
2022-10-16T04:17:32.912Z,14.42
2022-10-16T04:18:32.685Z,14.36
2022-10-16T04:19:32.182Z,14.38
2022-10-16T04:20:32.667Z,14.44
2022-10-16T04:21:32.739Z,14.45
2022-10-16T04:22:32.134Z,14.45
2022-10-16T04:23:32.638Z,14.44
2022-10-16T04:24:32.650Z,14.39
2022-10-16T04:25:32.369Z,14.42
2022-10-16T04:26:32.352Z,14.44
2022-10-16T04:27:33.283Z,14.44
2022-10-16T04:28:32.849Z,14.36
2022-10-16T04:29:32.333Z,14.3
2022-10-16T04:30:32.066Z,14.38
2022-10-16T04:31:32.316Z,14.44
2022-10-16T04:32:32.061Z,14.39
2022-10-16T04:33:32.312Z,14.42
2022-10-16T04:34:32.549Z,14.36
2022-10-16T04:35:32.280Z,14.38
2022-10-16T04:36:33.952Z,14.36
2022-10-16T04:37:33.149Z,14.41
2022-10-16T04:38:32.515Z,14.44
2022-10-16T04:39:32.501Z,14.36
2022-10-16T04:40:32.248Z,14.34
2022-10-16T04:41:33.150Z,14.3
2022-10-16T04:42:33.145Z,14.31
2022-10-16T04:43:33.153Z,14.33
2022-10-16T04:44:33.120Z,14.34
2022-10-16T04:45:32.872Z,14.44
2022-10-16T04:46:32.856Z,14.41
2022-10-16T04:47:33.603Z,14.42
2022-10-16T04:48:33.084Z,14.42
2022-10-16T04:49:33.081Z,14.42
2022-10-16T04:50:33.078Z,14.36
2022-10-16T04:51:32.806Z,14.33
2022-10-16T04:52:36.464Z,14.36
2022-10-16T04:53:33.377Z,14.45
2022-10-16T04:54:33.298Z,14.34
2022-10-16T04:55:32.776Z,14.34
2022-10-16T04:56:33.277Z,14.33
2022-10-16T04:57:33.698Z,14.31
2022-10-16T04:58:32.756Z,14.33
2022-10-16T04:59:32.951Z,14.42
2022-10-16T05:00:33.464Z,14.33
2022-10-16T05:01:33.192Z,14.49
2022-10-16T05:02:33.337Z,14.33
2022-10-16T05:03:33.171Z,14.42
2022-10-16T05:04:33.171Z,14.44
2022-10-16T05:05:33.412Z,14.41
2022-10-16T05:06:32.891Z,14.45
2022-10-16T05:07:33.746Z,14.42
2022-10-16T05:08:33.132Z,14.31
2022-10-16T05:09:33.460Z,14.39
2022-10-16T05:10:33.119Z,14.39
2022-10-16T05:11:33.358Z,14.34
2022-10-16T05:12:33.094Z,14.36
2022-10-16T05:13:33.085Z,14.31
2022-10-16T05:14:32.826Z,14.45
2022-10-16T05:15:33.074Z,14.45
2022-10-16T05:16:33.317Z,14.42
2022-10-16T05:17:33.699Z,14.41
2022-10-16T05:18:33.047Z,14.44
2022-10-16T05:19:34.067Z,14.44
2022-10-16T05:20:33.028Z,14.51
2022-10-16T05:21:32.759Z,14.48
2022-10-16T05:22:33.012Z,14.44
2022-10-16T05:23:33.006Z,14.51
2022-10-16T05:24:32.737Z,14.49
2022-10-16T05:25:33.315Z,14.51
2022-10-16T05:26:33.338Z,14.51
2022-10-16T05:27:33.548Z,14.49
2022-10-16T05:28:33.178Z,14.49
2022-10-16T05:29:33.205Z,14.51
2022-10-16T05:30:32.684Z,14.51
2022-10-16T05:31:32.942Z,14.53
2022-10-16T05:32:32.926Z,14.49
2022-10-16T05:33:32.919Z,14.53
2022-10-16T05:34:32.902Z,14.46
2022-10-16T05:35:33.160Z,14.46
2022-10-16T05:36:32.920Z,14.49
2022-10-16T05:37:33.149Z,14.48
2022-10-16T05:38:33.122Z,14.56
2022-10-16T05:39:32.868Z,14.6
2022-10-16T05:40:32.859Z,14.6
2022-10-16T05:41:33.183Z,14.46
2022-10-16T05:42:32.578Z,14.48
2022-10-16T05:43:32.836Z,14.57
2022-10-16T05:45:32.816Z,14.59
2022-10-16T05:46:32.806Z,14.63
2022-10-16T05:47:33.460Z,14.66
2022-10-16T05:48:32.791Z,14.67
2022-10-16T05:49:32.779Z,14.69
2022-10-16T05:50:32.767Z,14.74
2022-10-16T05:51:32.755Z,14.82
2022-10-16T05:52:32.764Z,14.8
2022-10-16T05:53:32.862Z,14.71
2022-10-16T05:54:32.733Z,14.74
2022-10-16T05:55:32.731Z,14.8
2022-10-16T05:56:32.980Z,14.82
2022-10-16T05:57:33.387Z,14.86
2022-10-16T05:58:32.700Z,14.8
2022-10-16T05:59:32.956Z,14.8
2022-10-16T06:00:33.002Z,14.9
2022-10-16T06:01:33.355Z,14.82
2022-10-16T06:02:33.382Z,14.89
2022-10-16T06:03:33.370Z,14.93
2022-10-16T06:04:32.856Z,14.9
2022-10-16T06:05:33.353Z,14.94
2022-10-16T06:06:33.339Z,14.97
2022-10-16T06:07:33.883Z,15
2022-10-16T06:08:33.070Z,15
2022-10-16T06:09:33.602Z,14.98
2022-10-16T06:10:33.100Z,15.05
2022-10-16T06:11:33.308Z,15.02
2022-10-16T06:12:33.047Z,15.08
2022-10-16T06:13:33.358Z,15.04
2022-10-16T06:14:32.807Z,15.05
2022-10-16T06:15:32.764Z,15.01
2022-10-16T06:16:32.779Z,15.02
2022-10-16T06:17:33.337Z,15.05
2022-10-16T06:18:32.986Z,15.13
2022-10-16T06:19:32.990Z,15.08
2022-10-16T06:20:33.182Z,15.12
2022-10-16T06:21:33.228Z,15.15
2022-10-16T06:22:32.958Z,15.13
2022-10-16T06:23:33.223Z,15.13
2022-10-16T06:24:33.205Z,15.22
2022-10-16T06:25:32.934Z,15.19
2022-10-16T06:26:33.179Z,15.25
2022-10-16T06:27:33.271Z,15.2
2022-10-16T06:28:32.845Z,15.2
2022-10-16T06:29:33.238Z,15.22
2022-10-16T06:30:33.154Z,15.25
2022-10-16T06:31:33.397Z,15.2
2022-10-16T06:32:33.135Z,15.2
2022-10-16T06:33:32.619Z,15.23
2022-10-16T06:34:32.874Z,15.33
2022-10-16T06:35:32.859Z,15.34
2022-10-16T06:36:32.842Z,15.34
2022-10-16T06:37:33.518Z,15.37
2022-10-16T06:38:33.095Z,15.33
2022-10-16T06:39:32.829Z,15.34
2022-10-16T06:40:32.867Z,15.44
2022-10-16T06:41:33.084Z,15.37
2022-10-16T06:42:33.333Z,15.41
2022-10-16T06:43:33.056Z,15.49
2022-10-16T06:44:33.050Z,15.52
2022-10-16T06:45:33.110Z,15.47
2022-10-16T06:46:33.027Z,15.47
2022-10-16T06:47:33.028Z,15.56
2022-10-16T06:48:32.503Z,15.55
2022-10-16T06:49:32.746Z,15.62
2022-10-16T06:50:32.739Z,15.65
2022-10-16T06:51:32.478Z,15.71
2022-10-16T06:52:33.525Z,15.74
2022-10-16T06:53:54.820Z,15.73
2022-10-16T06:54:39.741Z,15.75
2022-10-16T06:55:32.694Z,15.77
2022-10-16T06:56:33.015Z,15.86
2022-10-16T06:57:32.684Z,15.83
2022-10-16T06:58:32.669Z,15.88
2022-10-16T06:59:32.679Z,15.81
2022-10-16T07:00:32.698Z,15.91
2022-10-16T07:01:32.981Z,15.84
2022-10-16T07:02:33.553Z,15.92
2022-10-16T07:03:32.632Z,15.96
2022-10-16T07:04:32.631Z,15.98
2022-10-16T07:05:32.881Z,15.96
2022-10-16T07:06:32.869Z,16
2022-10-16T07:07:32.600Z,16.08
2022-10-16T07:08:32.601Z,16.07
2022-10-16T07:09:32.393Z,16.07
2022-10-16T07:10:32.875Z,16.22
2022-10-16T07:11:32.312Z,16.27
2022-10-16T07:12:33.060Z,16.32
2022-10-16T07:13:32.305Z,16.3
2022-10-16T07:14:32.806Z,16.29
2022-10-16T07:15:32.293Z,16.29
2022-10-16T07:16:32.822Z,16.32
2022-10-16T07:17:32.930Z,16.33
2022-10-16T07:18:33.344Z,16.34
2022-10-16T07:19:36.832Z,16.4
2022-10-16T07:20:32.518Z,16.37
2022-10-16T07:21:32.605Z,16.34
2022-10-16T07:22:32.909Z,16.27
2022-10-16T07:23:32.496Z,16.29
2022-10-16T07:24:32.491Z,16.32
2022-10-16T07:25:32.494Z,16.26
2022-10-16T07:26:32.740Z,16.37
2022-10-16T07:27:32.577Z,16.3
2022-10-16T07:28:32.356Z,16.4
2022-10-16T07:29:32.459Z,16.42
2022-10-16T07:30:32.696Z,16.45
2022-10-16T07:31:32.494Z,16.47
2022-10-16T07:32:32.832Z,16.63
2022-10-16T07:33:32.760Z,16.65
2022-10-16T07:34:32.154Z,16.69
2022-10-16T07:35:32.662Z,16.65
2022-10-16T07:36:32.245Z,16.66
2022-10-16T07:37:33.140Z,16.7
2022-10-16T07:38:32.380Z,16.66
2022-10-16T07:39:32.123Z,16.66
2022-10-16T07:40:32.628Z,16.59
2022-10-16T07:41:32.364Z,16.59
2022-10-16T07:42:32.611Z,16.7
2022-10-16T07:43:32.618Z,16.65
2022-10-16T07:44:32.598Z,16.66
2022-10-16T07:45:32.079Z,16.65
2022-10-16T07:46:32.347Z,16.57
2022-10-16T07:47:32.658Z,16.63
2022-10-16T07:48:32.070Z,16.57
2022-10-16T07:49:32.665Z,16.57
2022-10-16T07:50:32.052Z,16.45
2022-10-16T07:51:32.308Z,16.37
2022-10-16T07:52:32.555Z,16.44
2022-10-16T07:53:32.033Z,16.37
2022-10-16T07:54:32.279Z,16.36
2022-10-16T07:55:32.274Z,16.33
2022-10-16T07:56:32.020Z,16.3
2022-10-16T07:57:32.910Z,16.3
2022-10-16T07:58:32.508Z,16.33
2022-10-16T07:59:32.239Z,16.42
2022-10-16T08:00:31.985Z,16.39
2022-10-16T08:01:32.480Z,16.36
2022-10-16T08:02:32.222Z,16.55
2022-10-16T08:03:32.215Z,16.58
2022-10-16T08:04:32.491Z,16.59
2022-10-16T08:05:32.547Z,16.73
2022-10-16T08:06:33.075Z,16.8
2022-10-16T08:07:32.401Z,16.91
2022-10-16T08:08:32.453Z,16.94
2022-10-16T08:09:32.442Z,16.95
2022-10-16T08:10:32.169Z,17.09
2022-10-16T08:11:32.159Z,17.12
2022-10-16T08:12:32.153Z,17.06
2022-10-16T08:13:32.551Z,17.2
2022-10-16T08:14:32.410Z,17.15
2022-10-16T08:15:32.397Z,17.12
2022-10-16T08:16:32.398Z,17.17
2022-10-16T08:17:32.938Z,17.21
2022-10-16T08:18:31.868Z,17.17
2022-10-16T08:19:32.114Z,17.21
2022-10-16T08:20:32.104Z,17.22
2022-10-16T08:21:32.442Z,17.22
2022-10-16T08:22:32.356Z,17.28
2022-10-16T08:23:31.860Z,17.2
2022-10-16T08:24:32.080Z,17.3
2022-10-16T08:25:32.081Z,17.45
2022-10-16T08:26:32.391Z,17.31
2022-10-16T08:27:32.812Z,17.43
2022-10-16T08:28:32.006Z,17.49
2022-10-16T08:29:32.311Z,17.46
2022-10-16T08:30:32.048Z,17.45
2022-10-16T08:31:32.363Z,17.42
2022-10-16T08:32:33.136Z,17.3
2022-10-16T08:33:32.029Z,17.43
2022-10-16T08:34:32.277Z,17.43
2022-10-16T08:35:31.765Z,17.49
2022-10-16T08:36:32.007Z,17.57
2022-10-16T08:37:32.342Z,17.46
2022-10-16T08:38:32.004Z,17.5
2022-10-16T08:39:31.984Z,17.55
2022-10-16T08:40:32.279Z,17.49
2022-10-16T08:41:32.240Z,17.55
2022-10-16T08:42:32.875Z,17.54
2022-10-16T08:43:32.221Z,17.63
2022-10-16T08:44:32.215Z,17.58
2022-10-16T08:45:31.959Z,17.6
2022-10-16T08:46:31.952Z,17.6
2022-10-16T08:47:31.952Z,17.58
2022-10-16T08:48:32.206Z,17.55
2022-10-16T08:49:32.095Z,17.63
2022-10-16T08:50:32.187Z,17.74
2022-10-16T08:51:31.926Z,17.8
2022-10-16T08:52:32.587Z,17.95
2022-10-16T08:53:32.242Z,18.02
2022-10-16T08:54:31.909Z,18.08
2022-10-16T08:55:31.913Z,18.27
2022-10-16T08:56:31.895Z,18.38
2022-10-16T08:57:31.634Z,18.39
2022-10-16T08:58:31.627Z,18.41
2022-10-16T08:59:31.876Z,18.53
2022-10-16T09:00:32.167Z,18.45
2022-10-16T09:01:32.238Z,18.5
2022-10-16T09:02:32.841Z,18.45
2022-10-16T09:03:31.859Z,18.45
2022-10-16T09:04:31.875Z,18.41
2022-10-16T09:05:31.840Z,18.47
2022-10-16T09:06:32.107Z,18.45
2022-10-16T09:07:32.096Z,18.36
2022-10-16T09:08:31.572Z,18.39
2022-10-16T09:09:32.162Z,18.39
2022-10-16T09:10:31.818Z,18.41
2022-10-16T09:11:31.566Z,18.45
2022-10-16T09:12:32.271Z,18.41
2022-10-16T09:13:31.549Z,18.36
2022-10-16T09:14:32.062Z,18.38
2022-10-16T09:15:32.975Z,18.38
2022-10-16T09:16:32.960Z,18.38
2022-10-16T09:17:33.084Z,18.45
2022-10-16T09:18:37.354Z,18.54
2022-10-16T09:19:32.755Z,18.57
2022-10-16T09:20:32.938Z,18.65
2022-10-16T09:21:32.681Z,18.63
2022-10-16T09:22:32.675Z,18.69
2022-10-16T09:23:32.930Z,18.78
2022-10-16T09:24:34.268Z,18.75
2022-10-16T09:25:32.975Z,18.82
2022-10-16T09:26:32.412Z,18.9
2022-10-16T09:27:33.139Z,18.96
2022-10-16T09:28:32.966Z,18.91
2022-10-16T09:29:32.637Z,18.93
2022-10-16T09:30:32.645Z,19.06
2022-10-16T09:31:32.891Z,18.94
2022-10-16T09:32:32.620Z,18.97
2022-10-16T09:33:32.890Z,18.87
2022-10-16T09:34:32.358Z,18.97
2022-10-16T09:35:33.467Z,18.96
2022-10-16T09:36:32.613Z,18.87
2022-10-16T09:37:33.568Z,18.79
2022-10-16T09:38:32.859Z,18.81
2022-10-16T09:39:32.591Z,18.87
2022-10-16T09:40:32.610Z,18.97
2022-10-16T09:41:32.887Z,18.96
2022-10-16T09:42:32.578Z,19
2022-10-16T09:43:32.320Z,19.13
2022-10-16T09:44:33.068Z,19.17
2022-10-16T09:45:32.835Z,19.27
2022-10-16T09:46:32.569Z,19.23
2022-10-16T09:47:33.293Z,19.27
2022-10-16T09:48:32.559Z,19.28
2022-10-16T09:49:32.543Z,19.27
2022-10-16T09:50:32.551Z,19.19
2022-10-16T09:51:32.808Z,19.19
2022-10-16T09:52:32.585Z,19.17
2022-10-16T09:53:32.531Z,19.12
2022-10-16T09:54:32.524Z,19.05
2022-10-16T09:55:32.517Z,19.05
2022-10-16T09:56:32.800Z,18.96
2022-10-16T09:57:33.471Z,18.79
2022-10-16T09:58:32.505Z,18.81
2022-10-16T09:59:32.531Z,18.74
2022-10-16T10:00:32.510Z,18.71
2022-10-16T10:01:32.496Z,18.74
2022-10-16T10:02:32.232Z,18.76
2022-10-16T10:03:32.493Z,18.93
2022-10-16T10:04:32.743Z,18.97
2022-10-16T10:05:32.479Z,19.19
2022-10-16T10:06:32.471Z,19.43
2022-10-16T10:07:33.216Z,19.61
2022-10-16T10:08:32.211Z,19.65
2022-10-16T10:09:32.198Z,19.87
2022-10-16T10:10:32.195Z,20.01
2022-10-16T10:11:32.192Z,20.07
2022-10-16T10:12:34.334Z,20.07
2022-10-16T10:13:32.739Z,20.15
2022-10-16T10:14:32.443Z,20.08
2022-10-16T10:15:32.443Z,20.04
2022-10-16T10:16:32.683Z,20.15
2022-10-16T10:17:32.423Z,20.01
2022-10-16T10:18:32.423Z,20.04
2022-10-16T10:19:35.296Z,20.3
2022-10-16T10:20:32.161Z,20.37
2022-10-16T10:21:32.662Z,20.42
2022-10-16T10:22:33.167Z,20.42
2022-10-16T10:23:32.674Z,20.44
2022-10-16T10:24:32.674Z,20.53
2022-10-16T10:25:32.646Z,20.49
2022-10-16T10:26:34.420Z,20.49
2022-10-16T10:27:32.383Z,20.44
2022-10-16T10:28:32.613Z,20.4
2022-10-16T10:29:32.678Z,20.46
2022-10-16T10:30:32.125Z,20.34
2022-10-16T10:31:32.646Z,20.4
2022-10-16T10:32:33.213Z,20.22
2022-10-16T10:33:32.618Z,20.19
2022-10-16T10:34:32.103Z,20.1
2022-10-16T10:35:32.366Z,20.19
2022-10-16T10:36:32.358Z,20.18
2022-10-16T10:37:32.342Z,20.27
2022-10-16T10:38:32.344Z,20.26
2022-10-16T10:39:32.358Z,20.27
2022-10-16T10:40:32.332Z,20.42
2022-10-16T10:41:36.166Z,20.46
2022-10-16T10:42:32.627Z,20.44
2022-10-16T10:43:32.400Z,20.54
2022-10-16T10:44:32.416Z,20.49
2022-10-16T10:45:32.695Z,20.51
2022-10-16T10:46:32.386Z,20.53
2022-10-16T10:47:32.129Z,20.64
2022-10-16T10:48:33.138Z,20.51
2022-10-16T10:49:32.629Z,20.44
2022-10-16T10:50:32.376Z,20.37
2022-10-16T10:51:32.113Z,20.19
2022-10-16T10:52:32.604Z,20.11
2022-10-16T10:53:32.364Z,20.2
2022-10-16T10:54:32.510Z,20.22
2022-10-16T10:55:32.360Z,20.16
2022-10-16T10:56:32.093Z,20.19
2022-10-16T10:57:32.240Z,20.18
2022-10-16T10:58:38.251Z,20.08
2022-10-16T10:59:32.340Z,20.02
2022-10-16T11:00:32.359Z,20.11
2022-10-16T11:01:32.813Z,20.01
2022-10-16T11:02:33.068Z,20.04
2022-10-16T11:03:32.588Z,20.01
2022-10-16T11:04:32.061Z,20
2022-10-16T11:05:32.576Z,20.04
2022-10-16T11:06:32.472Z,20.04
2022-10-16T11:07:32.732Z,20.02
2022-10-16T11:08:32.048Z,20
2022-10-16T11:09:32.305Z,19.98
2022-10-16T11:10:32.560Z,19.98
2022-10-16T11:11:32.303Z,20.08
2022-10-16T11:12:32.046Z,20.02
2022-10-16T11:13:32.542Z,20.12
2022-10-16T11:14:32.292Z,20.32
2022-10-16T11:15:32.279Z,20.61
2022-10-16T11:16:32.044Z,20.9
2022-10-16T11:17:33.100Z,21.19
2022-10-16T11:18:32.268Z,21.4
2022-10-16T11:19:32.563Z,21.52
2022-10-16T11:20:32.008Z,21.71
2022-10-16T11:21:35.447Z,21.82
2022-10-16T11:22:32.523Z,22.04
2022-10-16T11:23:32.262Z,21.94
2022-10-16T11:24:32.511Z,21.93
2022-10-16T11:25:32.246Z,21.96
2022-10-16T11:26:32.267Z,21.89
2022-10-16T11:27:32.825Z,21.9
2022-10-16T11:28:36.552Z,21.9
2022-10-16T11:29:32.243Z,21.92
2022-10-16T11:30:31.985Z,21.77
2022-10-16T11:31:32.493Z,21.71
2022-10-16T11:32:32.260Z,21.59
2022-10-16T11:33:32.599Z,21.49
2022-10-16T11:34:36.937Z,21.45
2022-10-16T11:35:32.483Z,21.43
2022-10-16T11:36:32.004Z,21.43
2022-10-16T11:37:32.635Z,21.45
2022-10-16T11:38:32.227Z,21.53
2022-10-16T11:39:32.472Z,21.49
2022-10-16T11:40:32.473Z,21.51
2022-10-16T11:41:31.946Z,21.58
2022-10-16T11:42:32.457Z,21.59
2022-10-16T11:43:32.201Z,21.53
2022-10-16T11:44:32.476Z,21.49
2022-10-16T11:45:32.207Z,21.43
2022-10-16T11:46:31.945Z,21.4
2022-10-16T11:48:03.482Z,21.38
2022-10-16T11:48:32.198Z,21.49
2022-10-16T11:49:32.499Z,21.46
2022-10-16T11:50:32.446Z,21.41
2022-10-16T11:51:32.189Z,21.48
2022-10-16T11:52:32.180Z,21.51
2022-10-16T11:53:32.187Z,21.43
2022-10-16T11:54:32.427Z,21.45
2022-10-16T11:55:32.472Z,21.37
2022-10-16T11:56:32.180Z,21.22
2022-10-16T11:57:32.560Z,21.3
2022-10-16T11:58:32.166Z,21.19
2022-10-16T11:59:32.164Z,21.27
2022-10-16T12:00:31.917Z,21.21
2022-10-16T12:01:31.906Z,21.06
2022-10-16T12:02:32.564Z,21
2022-10-16T12:03:32.109Z,20.98
2022-10-16T12:04:32.410Z,21
2022-10-16T12:05:32.445Z,21.03
2022-10-16T12:06:32.157Z,21.01
2022-10-16T12:07:32.145Z,21
2022-10-16T12:08:32.532Z,20.97
2022-10-16T12:09:32.765Z,20.94
2022-10-16T12:10:32.864Z,20.91
2022-10-16T12:11:32.767Z,20.81
2022-10-16T12:12:39.710Z,20.76
2022-10-16T12:13:32.493Z,20.67
2022-10-16T12:14:32.244Z,20.63
2022-10-16T12:16:02.468Z,20.49
2022-10-16T12:16:32.492Z,20.51
2022-10-16T12:17:32.505Z,20.44
2022-10-16T12:18:32.273Z,20.34
2022-10-16T12:19:32.787Z,20.26
2022-10-16T12:20:32.485Z,20.27
2022-10-16T12:21:32.799Z,20.15
2022-10-16T12:22:32.719Z,20.05
2022-10-16T12:23:32.478Z,20.04
2022-10-16T12:24:32.213Z,20.02
2022-10-16T12:25:32.212Z,20.07
2022-10-16T12:26:32.458Z,20.2
2022-10-16T12:27:32.208Z,20.16
2022-10-16T12:28:32.727Z,20.27
2022-10-16T12:29:32.483Z,20.38
2022-10-16T12:30:38.214Z,20.4
2022-10-16T12:31:33.466Z,20.46
2022-10-16T12:32:51.068Z,20.42
2022-10-16T12:33:33.211Z,20.46
2022-10-16T12:34:33.201Z,20.46
2022-10-16T12:35:33.523Z,20.35
2022-10-16T12:36:33.198Z,20.35
2022-10-16T12:37:33.498Z,20.35
2022-10-16T12:38:33.442Z,20.3
2022-10-16T12:39:33.441Z,20.23
2022-10-16T12:40:33.180Z,20.18
2022-10-16T12:41:33.176Z,20.04
2022-10-16T12:42:33.781Z,20.04
2022-10-16T12:43:34.999Z,20.01
2022-10-16T12:44:32.904Z,19.82
2022-10-16T12:45:33.172Z,19.92
2022-10-16T12:46:32.901Z,19.86
2022-10-16T12:47:33.190Z,19.86
2022-10-16T12:49:16.967Z,19.72
2022-10-16T12:49:32.893Z,19.75
2022-10-16T12:50:33.154Z,19.63
2022-10-16T12:51:33.187Z,19.52
2022-10-16T12:52:34.250Z,19.45
2022-10-16T12:53:33.446Z,19.45
2022-10-16T12:54:33.136Z,19.3
2022-10-16T12:55:32.866Z,19.17
2022-10-16T12:56:33.301Z,19.15
2022-10-16T12:57:38.143Z,19.09
2022-10-16T12:58:33.367Z,19.05
2022-10-16T12:59:32.851Z,18.97
2022-10-16T13:00:33.025Z,18.99
2022-10-16T13:01:33.103Z,18.9
2022-10-16T13:02:33.095Z,18.84
2022-10-16T13:03:33.090Z,18.87
2022-10-16T13:04:33.090Z,18.82
2022-10-16T13:05:33.314Z,18.86
2022-10-16T13:06:32.827Z,18.75
2022-10-16T13:07:33.451Z,18.71
2022-10-16T13:08:33.324Z,18.71
2022-10-16T13:09:33.410Z,18.65
2022-10-16T13:10:33.320Z,18.71
2022-10-16T13:11:33.310Z,18.56
2022-10-16T13:12:33.068Z,18.69
2022-10-16T13:13:33.321Z,18.59